WetterOnline ( https://www.wetteronline.ch )

Wetter aktuell Bad Hersfeld

Aktuelles Wetter: Bad Hersfeld (273m)

6-stündlich | Neueste Meldungen
Ortszeit Temperatur Wetter
Do, 20.02. 13:00 6.6° C leichter Regen
Do, 20.02. 7:00 3.8° C Sprühregen
Do, 20.02. 1:00 2.5° C bedeckt
Mi, 19.02. 19:00 4.7° C bewölkt
Mi, 19.02. 13:00 5.4° C bewölkt
Mi, 19.02. 7:00 4.2° C leichter Regen
Mi, 19.02. 1:00 5.5° C bewölkt
Di, 18.02. 19:00 6.1° C bedeckt
Ortszeit Temperatur Wetter
Do, 20.02. 14:30 8.0° C bedeckt
Do, 20.02. 14:20 8.0° C bedeckt
Do, 20.02. 14:10 7.7° C leichter Regen
Do, 20.02. 14:00 7.4° C bedeckt
Do, 20.02. 13:50 7.4° C bedeckt
Do, 20.02. 13:40 7.3° C bedeckt
Do, 20.02. 13:30 7.1° C bewölkt
Do, 20.02. 13:00 6.6° C leichter Regen
Do, 20.02. 12:30 6.4° C bedeckt
Do, 20.02. 12:00 5.9° C bedeckt
Ortszeit Relative Feuchte Sichtweite
Do, 20.02. 13:00 82% 17 km
Do, 20.02. 7:00 85% 9 km
Do, 20.02. 1:00 70% 22 km
Mi, 19.02. 19:00 62% 21 km
Mi, 19.02. 13:00 65% 23 km
Mi, 19.02. 7:00 93% 5.0 km
Mi, 19.02. 1:00 73% 21 km
Di, 18.02. 19:00 66% 23 km
Ortszeit Relative Feuchte Sichtweite
Do, 20.02. 14:30 74% 22 km
Do, 20.02. 14:20 74% -
Do, 20.02. 14:10 74% -
Do, 20.02. 14:00 78% 24 km
Do, 20.02. 13:50 78% -
Do, 20.02. 13:40 79% -
Do, 20.02. 13:30 81% 20 km
Do, 20.02. 13:00 82% 17 km
Do, 20.02. 12:30 83% 22 km
Do, 20.02. 12:00 87% 18 km
Ortszeit Niederschlagsmenge Niederschlagsart
Do, 20.02. 13:00 2 l/m2 in 6 Std. Regen
Do, 20.02. 7:00 0.1 l/m2 in 12 Std. Schnee, Regen
Do, 20.02. 1:00 0.0 l/m2 in 6 Std. -
Mi, 19.02. 19:00 4 l/m2 in 12 Std. Regen
Mi, 19.02. 13:00 4 l/m2 in 6 Std. Regen
Mi, 19.02. 7:00 1 l/m2 in 12 Std. Regen
Mi, 19.02. 1:00 0.1 l/m2 in 6 Std. Regen
Di, 18.02. 19:00 0.1 l/m2 in 12 Std. Regen
Ortszeit Niederschlagsmenge Niederschlagsart
Do, 20.02. 14:30 0.1 l/m2 in 1 Std. Schneeregen
Do, 20.02. 14:20 keine Meldung -
Do, 20.02. 14:10 keine Meldung -
Do, 20.02. 14:00 0.1 l/m2 in 1 Std. Regen
Do, 20.02. 13:50 keine Meldung -
Do, 20.02. 13:40 keine Meldung -
Do, 20.02. 13:30 0.1 l/m2 in 1 Std. Schneeregen
Do, 20.02. 13:00 0.1 l/m2 in 1 Std. Regen
Do, 20.02. 12:30 0.1 l/m2 in 1 Std. Schnee
Do, 20.02. 12:00 0.0 l/m2 in 1 Std. -
Ortszeit Stärke Spitze Richtung
km/h Bft. km/h Grad Sektor
Do, 20.02. 13:00 22 4 36 190° S
Do, 20.02. 7:00 18 3 29 180° S
Do, 20.02. 1:00 11 2 29 190° S
Mi, 19.02. 19:00 17 3 44 210° SW
Mi, 19.02. 13:00 25 4 43 250° W
Mi, 19.02. 7:00 18 3 54 210° SW
Mi, 19.02. 1:00 22 4 46 200° S
Di, 18.02. 19:00 18 3 50 190° S
Ortszeit Stärke Spitze Richtung
km/h Bft. km/h Grad Sektor
Do, 20.02. 14:30 18 3 40 210° SW
Do, 20.02. 14:20 18 3 - 210° SW
Do, 20.02. 14:10 20 4 - 200° S
Do, 20.02. 14:00 19 3 39 200° S
Do, 20.02. 13:50 19 3 - 200° S
Do, 20.02. 13:40 17 3 - 200° S
Do, 20.02. 13:30 20 4 35 190° S
Do, 20.02. 13:00 22 4 36 190° S
Do, 20.02. 12:30 22 4 36 190° S
Do, 20.02. 12:00 20 4 35 190° S
Ortszeit Untergrenze Bedeckung Gattung
total tief tief mittel hoch
Do, 20.02. 13:00 450 m 8/8 8/8 - - -
Do, 20.02. 7:00 30 m 8/8 8/8 - - -
Do, 20.02. 1:00 3900 m 8/8 8/8 - - -
Mi, 19.02. 19:00 1170 m 7/8 7/8 - - -
Mi, 19.02. 13:00 930 m 7/8 7/8 - - -
Mi, 19.02. 7:00 450 m 8/8 8/8 - - -
Mi, 19.02. 1:00 780 m 8/8 4/8 - - -
Di, 18.02. 19:00 1200 m 8/8 8/8 - - -
Ortszeit Bedeckungsgrad in Achtel und Wolkenuntergrenze
Do, 20.02. 14:30 4(690m) 7(840m) 8(1470m)
Do, 20.02. 14:20 4(690m) 7(840m) 8(1470m)
Do, 20.02. 14:10 5(690m) 8(1080m) 8(1440m)
Do, 20.02. 14:00 7(660m) 7(870m) 8(1500m)
Do, 20.02. 13:50 7(660m) 7(870m) 8(1500m)
Do, 20.02. 13:40 7(630m) 7(870m) 8(1500m)
Do, 20.02. 13:30 7(630m) 7(1500m) 8(1500m)
Do, 20.02. 13:00 1(450m) 8(780m) 8(1500m)
Do, 20.02. 12:30 4(360m) 7(660m) 8(1500m)
Do, 20.02. 12:00 5(330m) 8(510m) 8(1500m)
Ortszeit Luftdruck NN (hPa) Tendenz (hPa in 3 Std.)
Do, 20.02. 13:00 1018 - 1,9
Do, 20.02. 7:00 1021 - 0,8
Do, 20.02. 1:00 1023 - 0,8
Mi, 19.02. 19:00 1023 + 2,1
Mi, 19.02. 13:00 1019 + 2,3
Mi, 19.02. 7:00 1013 - 2,5
Mi, 19.02. 1:00 1019 - 3,0
Di, 18.02. 19:00 1023 + 0,2
Ortszeit Luftdruck NN (hPa) Tendenz (hPa in 3 Std.)
Do, 20.02. 14:30 1017 - 2,3
Do, 20.02. 14:20 1017 keine Meldung
Do, 20.02. 14:10 1017 keine Meldung
Do, 20.02. 14:00 1018 - 2,1
Do, 20.02. 13:50 1018 keine Meldung
Do, 20.02. 13:40 1018 keine Meldung
Do, 20.02. 13:30 1018 - 2,0
Do, 20.02. 13:00 1018 - 1,9
Do, 20.02. 12:30 1019 - 1,7
Do, 20.02. 12:00 1019 - 1,1
Ortszeit Schneehöhe (cm)
Do, 20.02. 13:00 0
Do, 20.02. 7:00 0
Do, 20.02. 1:00 0
Mi, 19.02. 19:00 0
Mi, 19.02. 13:00 0
Mi, 19.02. 7:00 0
Mi, 19.02. 1:00 0
Di, 18.02. 19:00 0
Ortszeit Schneehöhe (cm)
Do, 20.02. 14:30 0
Do, 20.02. 14:20 0
Do, 20.02. 14:10 0
Do, 20.02. 14:00 0
Do, 20.02. 13:50 0
Do, 20.02. 13:40 0
Do, 20.02. 13:30 0
Do, 20.02. 13:00 0
Do, 20.02. 12:30 0
Do, 20.02. 12:00 0
Link zu dieser Seite / Seite empfehlen

Das Wetter in ...